createdAt,value
2019-02-12T00:00:01.506Z,6.2
2019-02-12T00:05:02.182Z,6.2
2019-02-12T00:10:01.268Z,6.2
2019-02-12T00:15:02.132Z,6.2
2019-02-12T00:20:01.424Z,6.2
2019-02-12T00:25:01.256Z,6.2
2019-02-12T00:30:01.384Z,6.2
2019-02-12T00:35:02.303Z,6.2
2019-02-12T00:40:01.268Z,6.2
2019-02-12T00:45:01.979Z,6.2
2019-02-12T00:50:01.617Z,6.2
2019-02-12T00:55:01.576Z,6.2
2019-02-12T01:00:01.601Z,6.2
2019-02-12T01:05:01.538Z,6.2
2019-02-12T01:10:01.774Z,6.2
2019-02-12T01:15:01.495Z,6.2
2019-02-12T01:20:01.460Z,6.2
2019-02-12T01:25:01.921Z,6.2
2019-02-12T01:30:01.692Z,6.2
2019-02-12T01:35:02.762Z,6.2
2019-02-12T01:40:01.764Z,6.2
2019-02-12T01:45:01.582Z,6.2
2019-02-12T01:50:01.322Z,6.2
2019-02-12T01:55:02.200Z,6.2
2019-02-12T02:00:01.846Z,6.2
2019-02-12T02:05:01.660Z,6.2
2019-02-12T02:10:02.087Z,6.2
2019-02-12T02:15:01.881Z,6.2
2019-02-12T02:20:01.700Z,6.2
2019-02-12T02:25:02.041Z,6.2
2019-02-12T02:30:01.876Z,6.2
2019-02-12T02:35:01.559Z,6.2
2019-02-12T02:40:01.904Z,6.2
2019-02-12T02:45:01.405Z,6.2
2019-02-12T02:50:03.401Z,6.2
2019-02-12T02:55:02.030Z,6.2
2019-02-12T03:00:02.001Z,6.2
2019-02-12T03:05:01.770Z,6.2
2019-02-12T03:10:01.852Z,6.2
2019-02-12T03:15:01.906Z,6.2
2019-02-12T03:20:02.316Z,6.2
2019-02-12T03:25:02.021Z,6.2
2019-02-12T03:30:01.282Z,6.2
2019-02-12T03:35:01.854Z,6.2
2019-02-12T03:40:01.738Z,6.2
2019-02-12T03:45:01.945Z,6.2
2019-02-12T03:50:01.820Z,6.2
2019-02-12T03:55:01.528Z,6.2
2019-02-12T04:00:01.509Z,6.2
2019-02-12T04:05:01.839Z,6.2
2019-02-12T04:10:01.780Z,6.2
2019-02-12T04:15:01.408Z,6.2
2019-02-12T04:20:01.896Z,6.2
2019-02-12T04:25:01.452Z,6.2
2019-02-12T04:30:01.356Z,6.2
2019-02-12T04:35:01.499Z,6.2
2019-02-12T04:40:01.590Z,6.2
2019-02-12T04:45:02.146Z,6.2
2019-02-12T04:50:01.923Z,6.2
2019-02-12T04:55:01.338Z,6.2
2019-02-12T05:00:01.240Z,6.2
2019-02-12T05:05:01.856Z,6.2
2019-02-12T05:10:01.427Z,6.2
2019-02-12T05:15:01.404Z,6.2
2019-02-12T05:20:02.426Z,6.2
2019-02-12T05:25:01.854Z,6.2
2019-02-12T05:30:02.317Z,6.2
2019-02-12T05:35:01.968Z,6.2
2019-02-12T05:40:01.823Z,6.2
2019-02-12T05:45:01.280Z,6.2
2019-02-12T05:50:02.205Z,6.2
2019-02-12T05:55:01.684Z,2.5
2019-02-12T06:00:02.221Z,2.5
2019-02-12T06:05:01.273Z,2.6
2019-02-12T06:10:01.311Z,2.7
2019-02-12T06:15:01.517Z,2.8
2019-02-12T06:20:01.537Z,2.9
2019-02-12T06:25:01.815Z,2.9
2019-02-12T06:30:02.191Z,3
2019-02-12T06:35:02.027Z,3
2019-02-12T06:40:02.272Z,3
2019-02-12T06:45:01.180Z,3
2019-02-12T06:50:01.225Z,3
2019-02-12T06:55:01.357Z,3
2019-02-12T07:00:01.905Z,2.9
2019-02-12T07:05:02.150Z,2.9
2019-02-12T07:10:01.303Z,2.9
2019-02-12T07:15:02.028Z,3
2019-02-12T07:20:01.806Z,2.9
2019-02-12T07:25:01.366Z,2.9
2019-02-12T07:30:01.511Z,2.9
2019-02-12T07:35:01.201Z,3
2019-02-12T07:40:01.319Z,3
2019-02-12T07:45:01.454Z,3.1
2019-02-12T07:50:01.525Z,3.2
2019-02-12T07:55:01.695Z,3.3
2019-02-12T08:00:01.573Z,3.4
2019-02-12T08:05:01.201Z,3.6
2019-02-12T08:10:01.346Z,3.7
2019-02-12T08:15:01.520Z,4
2019-02-12T08:20:01.554Z,4.2
2019-02-12T08:25:02.050Z,4.4
2019-02-12T08:30:01.923Z,4.6
2019-02-12T08:35:01.701Z,4.8
2019-02-12T08:40:01.565Z,5
2019-02-12T08:45:01.670Z,5.2
2019-02-12T08:50:01.344Z,5.4
2019-02-12T08:55:01.699Z,5.5
2019-02-12T09:00:03.531Z,5.8
2019-02-12T09:05:02.109Z,6.1
2019-02-12T09:10:01.943Z,6.2
2019-02-12T09:15:01.666Z,6.4
2019-02-12T09:20:01.600Z,6.6
2019-02-12T09:25:01.213Z,6.8
2019-02-12T09:30:01.815Z,7
2019-02-12T09:35:01.617Z,7.2
2019-02-12T09:40:01.491Z,7.3
2019-02-12T09:45:01.956Z,7.5
2019-02-12T09:50:01.639Z,7.5
2019-02-12T09:55:01.590Z,7.6
2019-02-12T10:00:01.769Z,7.6
2019-02-12T10:05:01.605Z,7.6
2019-02-12T10:10:02.424Z,7.8
2019-02-12T10:15:01.961Z,7.8
2019-02-12T10:20:02.054Z,8.1
2019-02-12T10:25:01.435Z,8.2
2019-02-12T10:30:01.813Z,8.3
2019-02-12T10:35:01.488Z,8.4
2019-02-12T10:40:01.583Z,8.6
2019-02-12T10:45:01.784Z,8.6
2019-02-12T10:50:01.788Z,8.6
2019-02-12T10:55:01.869Z,8.5
2019-02-12T11:00:01.154Z,8.5
2019-02-12T11:05:02.234Z,8.7
2019-02-12T11:10:02.137Z,8.8
2019-02-12T11:15:01.698Z,8.8
2019-02-12T11:20:01.534Z,8.7
2019-02-12T11:25:01.693Z,8.8
2019-02-12T11:30:02.166Z,9.1
2019-02-12T11:35:01.666Z,9.1
2019-02-12T11:40:01.505Z,9.2
2019-02-12T11:45:01.347Z,9.2
2019-02-12T11:50:01.433Z,9.3
2019-02-12T11:55:01.616Z,9.4
2019-02-12T12:00:02.058Z,9.3
2019-02-12T12:05:01.328Z,9.4
2019-02-12T12:10:02.657Z,9.3
2019-02-12T12:15:01.331Z,9.2
2019-02-12T12:20:02.109Z,9.4
2019-02-12T12:25:01.996Z,9.5
2019-02-12T12:30:01.587Z,9.4
2019-02-12T12:35:01.456Z,9.4
2019-02-12T12:40:01.364Z,9.6
2019-02-12T12:45:01.480Z,9.4
2019-02-12T12:50:01.349Z,9
2019-02-12T12:55:01.403Z,8.9
2019-02-12T13:00:02.133Z,8.7
2019-02-12T13:05:02.709Z,8.4
2019-02-12T13:10:01.651Z,8.4
2019-02-12T13:15:02.119Z,8.3
2019-02-12T13:20:01.467Z,8.4
2019-02-12T13:25:08.110Z,8.5
2019-02-12T13:30:01.537Z,8.7
2019-02-12T13:35:01.786Z,8.9
2019-02-12T13:40:01.697Z,9.1
2019-02-12T13:45:01.303Z,9.5
2019-02-12T13:50:01.486Z,9.8
2019-02-12T13:55:01.424Z,9.8
2019-02-12T14:00:01.914Z,10
2019-02-12T14:05:02.210Z,10.2
2019-02-12T14:10:01.989Z,10.2
2019-02-12T14:15:01.237Z,10.1
2019-02-12T14:20:02.479Z,10
2019-02-12T14:25:01.128Z,9.9
2019-02-12T14:30:02.142Z,9.8
2019-02-12T14:35:01.261Z,9.7
2019-02-12T14:40:01.606Z,9.3
2019-02-12T14:45:01.830Z,9.1
2019-02-12T14:50:01.832Z,8.8
2019-02-12T14:55:01.435Z,8.7
2019-02-12T15:00:01.627Z,8.7
2019-02-12T15:05:01.791Z,8.7
2019-02-12T15:10:01.734Z,8.5
2019-02-12T15:15:01.491Z,8.4
2019-02-12T15:20:01.319Z,8.3
2019-02-12T15:25:01.606Z,8.2
2019-02-12T15:30:02.113Z,8.1
2019-02-12T15:35:02.030Z,7.9
2019-02-12T15:40:01.779Z,7.8
2019-02-12T15:45:01.932Z,7.7
2019-02-12T15:50:01.224Z,7.5
2019-02-12T15:55:01.248Z,7.4
2019-02-12T16:00:02.196Z,7.3
2019-02-12T16:05:01.706Z,7.3
2019-02-12T16:10:01.663Z,7.2
2019-02-12T16:15:02.015Z,7
2019-02-12T16:20:02.378Z,6.9
2019-02-12T16:25:02.081Z,6.8
2019-02-12T16:30:01.676Z,6.7
2019-02-12T16:35:01.616Z,6.6
2019-02-12T16:40:02.234Z,6.7
2019-02-12T16:45:01.476Z,6.6
2019-02-12T16:50:01.561Z,6.6
2019-02-12T16:55:01.632Z,6.7
2019-02-12T17:00:02.024Z,6.6
2019-02-12T17:05:02.098Z,6.5
2019-02-12T17:10:01.798Z,6.5
2019-02-12T17:15:02.525Z,6.4
2019-02-12T17:20:01.388Z,6.4
2019-02-12T17:25:01.401Z,6.4
2019-02-12T17:30:01.890Z,6.4
2019-02-12T17:35:02.150Z,6.3
2019-02-12T17:40:01.488Z,6.3
2019-02-12T17:45:02.104Z,6.4
2019-02-12T17:50:02.395Z,6.3
2019-02-12T17:55:02.014Z,6.4
2019-02-12T18:00:01.714Z,6.4
2019-02-12T18:05:01.349Z,6.4
2019-02-12T18:10:01.802Z,6.4
2019-02-12T18:15:02.285Z,6.3
2019-02-12T18:20:02.051Z,6.2
2019-02-12T18:25:01.445Z,6.2
2019-02-12T18:30:02.079Z,6.1
2019-02-12T18:35:01.222Z,6.1
2019-02-12T18:40:02.794Z,6
2019-02-12T18:45:02.027Z,6
2019-02-12T18:50:01.459Z,6
2019-02-12T18:55:02.050Z,6
2019-02-12T19:00:01.971Z,5.9
2019-02-12T19:05:02.415Z,5.9
2019-02-12T19:10:02.050Z,5.9
2019-02-12T19:15:02.009Z,5.9
2019-02-12T19:20:01.477Z,5.9
2019-02-12T19:25:02.067Z,5.9
2019-02-12T19:30:01.737Z,6
2019-02-12T19:35:01.607Z,6
2019-02-12T19:40:02.485Z,6.1
2019-02-12T19:45:01.240Z,6.1
2019-02-12T19:50:02.203Z,6.1
2019-02-12T19:55:01.645Z,6.2
2019-02-12T20:00:02.105Z,6.2
2019-02-12T20:05:01.287Z,6.2
2019-02-12T20:10:02.195Z,6.3
2019-02-12T20:15:01.391Z,6.3
2019-02-12T20:20:01.784Z,6.3
2019-02-12T20:25:01.736Z,6.3
2019-02-12T20:30:01.728Z,6.2
2019-02-12T20:35:01.847Z,6.2
2019-02-12T20:40:01.231Z,6.3
2019-02-12T20:45:01.312Z,6.3
2019-02-12T20:50:02.434Z,6.3
2019-02-12T20:55:01.670Z,6.3
2019-02-12T21:00:01.202Z,6.4
2019-02-12T21:05:01.908Z,6.4
2019-02-12T21:10:02.079Z,6.4
2019-02-12T21:15:01.864Z,6.5
2019-02-12T21:20:01.746Z,6.5
2019-02-12T21:25:02.395Z,6.5
2019-02-12T21:30:01.278Z,6.5
2019-02-12T21:35:01.658Z,6.5
2019-02-12T21:40:01.613Z,6.5
2019-02-12T21:45:01.673Z,6.6
2019-02-12T21:50:02.743Z,6.6
2019-02-12T21:55:02.042Z,6.6
2019-02-12T22:00:02.154Z,6.7
2019-02-12T22:05:01.350Z,6.7
2019-02-12T22:10:02.255Z,6.7
2019-02-12T22:15:01.395Z,6.7
2019-02-12T22:20:01.763Z,6.7
2019-02-12T22:25:01.957Z,6.7
2019-02-12T22:30:02.093Z,6.6
2019-02-12T22:35:01.708Z,6.6
2019-02-12T22:40:01.641Z,6.6
2019-02-12T22:45:01.714Z,6.7
2019-02-12T22:50:01.985Z,6.7
2019-02-12T22:55:01.921Z,6.7
2019-02-12T23:00:02.347Z,6.8
2019-02-12T23:05:01.817Z,6.8
2019-02-12T23:10:02.132Z,6.8
2019-02-12T23:15:01.735Z,6.8
2019-02-12T23:20:01.768Z,6.9
2019-02-12T23:25:01.432Z,6.9
2019-02-12T23:30:01.723Z,6.9
2019-02-12T23:35:01.650Z,6.9
2019-02-12T23:40:01.445Z,6.9
2019-02-12T23:45:02.145Z,6.9
2019-02-12T23:50:01.440Z,6.9
2019-02-12T23:55:01.203Z,6.9
